sensor_id;sensor_type;location;lat;lon;timestamp;P1;durP1;ratioP1;P2;durP2;ratioP2
6928;SDS011;3504;52.616;13.238;2022-08-18T00:00:51;14.10;;;12.75;;
6928;SDS011;3504;52.616;13.238;2022-08-18T00:05:51;14.52;;;13.05;;
6928;SDS011;3504;52.616;13.238;2022-08-18T00:10:54;14.05;;;12.68;;
6928;SDS011;3504;52.616;13.238;2022-08-18T00:15:55;13.90;;;12.60;;
6928;SDS011;3504;52.616;13.238;2022-08-18T00:20:56;16.50;;;12.85;;
6928;SDS011;3504;52.616;13.238;2022-08-18T00:25:57;13.82;;;12.43;;
6928;SDS011;3504;52.616;13.238;2022-08-18T00:31:00;13.65;;;12.38;;
6928;SDS011;3504;52.616;13.238;2022-08-18T00:36:00;15.57;;;12.32;;
6928;SDS011;3504;52.616;13.238;2022-08-18T00:41:02;13.65;;;12.45;;
6928;SDS011;3504;52.616;13.238;2022-08-18T00:46:05;14.43;;;12.90;;
6928;SDS011;3504;52.616;13.238;2022-08-18T00:51:17;13.20;;;11.98;;
6928;SDS011;3504;52.616;13.238;2022-08-18T00:56:35;14.45;;;12.98;;
6928;SDS011;3504;52.616;13.238;2022-08-18T01:01:44;13.73;;;12.38;;
6928;SDS011;3504;52.616;13.238;2022-08-18T01:06:49;15.30;;;13.07;;
6928;SDS011;3504;52.616;13.238;2022-08-18T01:11:55;15.60;;;12.77;;
6928;SDS011;3504;52.616;13.238;2022-08-18T01:16:55;15.15;;;13.55;;
6928;SDS011;3504;52.616;13.238;2022-08-18T01:28:06;14.35;;;12.98;;
6928;SDS011;3504;52.616;13.238;2022-08-18T01:33:08;14.13;;;12.82;;
6928;SDS011;3504;52.616;13.238;2022-08-18T01:38:11;14.07;;;12.88;;
6928;SDS011;3504;52.616;13.238;2022-08-18T01:43:14;13.68;;;12.27;;
6928;SDS011;3504;52.616;13.238;2022-08-18T01:48:14;15.15;;;13.68;;
6928;SDS011;3504;52.616;13.238;2022-08-18T01:53:16;15.32;;;13.52;;
6928;SDS011;3504;52.616;13.238;2022-08-18T01:58:18;15.48;;;13.88;;
6928;SDS011;3504;52.616;13.238;2022-08-18T02:03:38;15.65;;;14.25;;
6928;SDS011;3504;52.616;13.238;2022-08-18T02:08:44;16.52;;;13.98;;
6928;SDS011;3504;52.616;13.238;2022-08-18T02:13:47;15.73;;;14.32;;
6928;SDS011;3504;52.616;13.238;2022-08-18T02:18:48;15.40;;;13.82;;
6928;SDS011;3504;52.616;13.238;2022-08-18T02:23:50;16.92;;;15.13;;
6928;SDS011;3504;52.616;13.238;2022-08-18T02:28:50;15.02;;;13.65;;
6928;SDS011;3504;52.616;13.238;2022-08-18T02:33:52;15.70;;;14.23;;
6928;SDS011;3504;52.616;13.238;2022-08-18T02:38:53;16.63;;;15.02;;
6928;SDS011;3504;52.616;13.238;2022-08-18T02:43:55;16.55;;;14.85;;
6928;SDS011;3504;52.616;13.238;2022-08-18T02:48:58;16.25;;;14.77;;
6928;SDS011;3504;52.616;13.238;2022-08-18T02:54:00;16.13;;;14.63;;
6928;SDS011;3504;52.616;13.238;2022-08-18T02:59:05;16.73;;;15.13;;
6928;SDS011;3504;52.616;13.238;2022-08-18T03:04:11;17.52;;;15.15;;
6928;SDS011;3504;52.616;13.238;2022-08-18T03:09:15;16.60;;;14.88;;
6928;SDS011;3504;52.616;13.238;2022-08-18T03:14:17;16.92;;;15.05;;
6928;SDS011;3504;52.616;13.238;2022-08-18T03:19:18;17.67;;;16.08;;
6928;SDS011;3504;52.616;13.238;2022-08-18T03:24:20;16.33;;;14.70;;
6928;SDS011;3504;52.616;13.238;2022-08-18T03:29:21;18.70;;;15.75;;
6928;SDS011;3504;52.616;13.238;2022-08-18T03:34:24;16.45;;;14.95;;
6928;SDS011;3504;52.616;13.238;2022-08-18T03:39:25;16.70;;;14.93;;
6928;SDS011;3504;52.616;13.238;2022-08-18T03:44:32;16.40;;;14.80;;
6928;SDS011;3504;52.616;13.238;2022-08-18T03:49:37;17.80;;;16.10;;
6928;SDS011;3504;52.616;13.238;2022-08-18T03:54:39;17.35;;;15.75;;
6928;SDS011;3504;52.616;13.238;2022-08-18T03:59:40;19.00;;;17.00;;
6928;SDS011;3504;52.616;13.238;2022-08-18T04:04:42;17.88;;;16.27;;
6928;SDS011;3504;52.616;13.238;2022-08-18T04:09:43;17.08;;;15.48;;
6928;SDS011;3504;52.616;13.238;2022-08-18T04:14:46;17.98;;;16.27;;
6928;SDS011;3504;52.616;13.238;2022-08-18T04:19:48;18.67;;;16.60;;
6928;SDS011;3504;52.616;13.238;2022-08-18T04:24:50;19.73;;;17.73;;
6928;SDS011;3504;52.616;13.238;2022-08-18T04:29:51;18.58;;;16.65;;
6928;SDS011;3504;52.616;13.238;2022-08-18T04:34:53;17.95;;;16.08;;
6928;SDS011;3504;52.616;13.238;2022-08-18T04:39:54;17.13;;;15.52;;
6928;SDS011;3504;52.616;13.238;2022-08-18T04:44:55;17.58;;;15.70;;
6928;SDS011;3504;52.616;13.238;2022-08-18T04:49:56;18.35;;;16.48;;
6928;SDS011;3504;52.616;13.238;2022-08-18T04:54:58;19.95;;;17.65;;
6928;SDS011;3504;52.616;13.238;2022-08-18T05:00:00;17.40;;;15.60;;
6928;SDS011;3504;52.616;13.238;2022-08-18T05:05:03;17.77;;;16.08;;
6928;SDS011;3504;52.616;13.238;2022-08-18T05:10:05;20.00;;;17.98;;
6928;SDS011;3504;52.616;13.238;2022-08-18T05:15:07;18.58;;;16.67;;
6928;SDS011;3504;52.616;13.238;2022-08-18T05:20:09;18.33;;;16.52;;
6928;SDS011;3504;52.616;13.238;2022-08-18T05:25:11;18.42;;;16.58;;
6928;SDS011;3504;52.616;13.238;2022-08-18T05:30:13;17.90;;;16.15;;
6928;SDS011;3504;52.616;13.238;2022-08-18T05:35:17;17.45;;;15.85;;
6928;SDS011;3504;52.616;13.238;2022-08-18T05:40:23;18.20;;;16.50;;
6928;SDS011;3504;52.616;13.238;2022-08-18T05:45:26;18.48;;;16.60;;
6928;SDS011;3504;52.616;13.238;2022-08-18T05:50:27;18.17;;;15.88;;
6928;SDS011;3504;52.616;13.238;2022-08-18T05:55:38;17.80;;;16.02;;
6928;SDS011;3504;52.616;13.238;2022-08-18T06:01:20;18.77;;;16.10;;
6928;SDS011;3504;52.616;13.238;2022-08-18T06:06:27;19.33;;;15.77;;
6928;SDS011;3504;52.616;13.238;2022-08-18T06:11:30;18.05;;;16.00;;
6928;SDS011;3504;52.616;13.238;2022-08-18T06:16:41;17.60;;;15.98;;
6928;SDS011;3504;52.616;13.238;2022-08-18T06:22:12;19.90;;;16.25;;
6928;SDS011;3504;52.616;13.238;2022-08-18T06:28:00;17.92;;;16.02;;
6928;SDS011;3504;52.616;13.238;2022-08-18T06:33:13;17.50;;;15.70;;
6928;SDS011;3504;52.616;13.238;2022-08-18T06:38:45;18.42;;;16.52;;
6928;SDS011;3504;52.616;13.238;2022-08-18T06:55:11;18.85;;;16.80;;
6928;SDS011;3504;52.616;13.238;2022-08-18T07:00:20;22.13;;;17.13;;
6928;SDS011;3504;52.616;13.238;2022-08-18T07:05:26;20.65;;;15.88;;
6928;SDS011;3504;52.616;13.238;2022-08-18T07:10:35;17.70;;;15.55;;
6928;SDS011;3504;52.616;13.238;2022-08-18T07:15:39;18.40;;;16.58;;
6928;SDS011;3504;52.616;13.238;2022-08-18T07:20:45;17.80;;;15.90;;
6928;SDS011;3504;52.616;13.238;2022-08-18T07:26:00;16.75;;;15.05;;
6928;SDS011;3504;52.616;13.238;2022-08-18T07:36:41;17.08;;;15.38;;
6928;SDS011;3504;52.616;13.238;2022-08-18T07:53:55;19.48;;;16.00;;
6928;SDS011;3504;52.616;13.238;2022-08-18T07:58:50;17.67;;;15.85;;
6928;SDS011;3504;52.616;13.238;2022-08-18T08:09:43;17.75;;;15.95;;
6928;SDS011;3504;52.616;13.238;2022-08-18T08:15:07;17.60;;;15.98;;
6928;SDS011;3504;52.616;13.238;2022-08-18T08:20:33;23.13;;;17.80;;
6928;SDS011;3504;52.616;13.238;2022-08-18T08:31:52;18.38;;;16.55;;
6928;SDS011;3504;52.616;13.238;2022-08-18T08:37:04;20.13;;;18.23;;
6928;SDS011;3504;52.616;13.238;2022-08-18T08:47:38;19.63;;;17.38;;
6928;SDS011;3504;52.616;13.238;2022-08-18T08:52:49;19.08;;;16.90;;
6928;SDS011;3504;52.616;13.238;2022-08-18T09:03:47;18.25;;;16.45;;
6928;SDS011;3504;52.616;13.238;2022-08-18T09:14:59;20.10;;;17.80;;
6928;SDS011;3504;52.616;13.238;2022-08-18T09:25:52;21.05;;;17.27;;
6928;SDS011;3504;52.616;13.238;2022-08-18T09:41:59;21.98;;;16.77;;
6928;SDS011;3504;52.616;13.238;2022-08-18T09:57:26;24.00;;;17.10;;
6928;SDS011;3504;52.616;13.238;2022-08-18T10:07:39;18.38;;;16.30;;
6928;SDS011;3504;52.616;13.238;2022-08-18T10:18:39;18.35;;;16.52;;
6928;SDS011;3504;52.616;13.238;2022-08-18T10:29:08;15.57;;;14.10;;
6928;SDS011;3504;52.616;13.238;2022-08-18T10:39:50;15.23;;;13.82;;
6928;SDS011;3504;52.616;13.238;2022-08-18T10:50:42;15.50;;;14.02;;
6928;SDS011;3504;52.616;13.238;2022-08-18T10:56:01;16.60;;;14.90;;
6928;SDS011;3504;52.616;13.238;2022-08-18T11:01:29;16.15;;;14.45;;
6928;SDS011;3504;52.616;13.238;2022-08-18T11:07:29;18.15;;;15.02;;
6928;SDS011;3504;52.616;13.238;2022-08-18T11:13:40;15.38;;;13.82;;
6928;SDS011;3504;52.616;13.238;2022-08-18T11:18:15;14.70;;;13.38;;
6928;SDS011;3504;52.616;13.238;2022-08-18T11:23:34;16.20;;;14.73;;
6928;SDS011;3504;52.616;13.238;2022-08-18T11:28:36;16.02;;;14.43;;
6928;SDS011;3504;52.616;13.238;2022-08-18T11:33:38;15.20;;;13.70;;
6928;SDS011;3504;52.616;13.238;2022-08-18T11:39:06;16.20;;;14.52;;
6928;SDS011;3504;52.616;13.238;2022-08-18T11:44:12;16.27;;;14.63;;
6928;SDS011;3504;52.616;13.238;2022-08-18T11:49:31;14.73;;;13.40;;
6928;SDS011;3504;52.616;13.238;2022-08-18T11:54:38;14.30;;;12.80;;
6928;SDS011;3504;52.616;13.238;2022-08-18T11:59:43;13.13;;;11.82;;
6928;SDS011;3504;52.616;13.238;2022-08-18T12:04:47;12.05;;;10.85;;
6928;SDS011;3504;52.616;13.238;2022-08-18T12:15:28;15.63;;;11.38;;
6928;SDS011;3504;52.616;13.238;2022-08-18T12:20:33;11.68;;;10.48;;
6928;SDS011;3504;52.616;13.238;2022-08-18T12:25:33;11.52;;;10.43;;
6928;SDS011;3504;52.616;13.238;2022-08-18T12:30:35;11.50;;;10.35;;
6928;SDS011;3504;52.616;13.238;2022-08-18T12:35:35;12.35;;;11.02;;
6928;SDS011;3504;52.616;13.238;2022-08-18T12:40:37;11.70;;;10.50;;
6928;SDS011;3504;52.616;13.238;2022-08-18T12:45:39;11.50;;;10.25;;
6928;SDS011;3504;52.616;13.238;2022-08-18T12:50:41;11.38;;;10.20;;
6928;SDS011;3504;52.616;13.238;2022-08-18T12:55:42;10.88;;;9.68;;
6928;SDS011;3504;52.616;13.238;2022-08-18T13:00:45;10.32;;;9.43;;
6928;SDS011;3504;52.616;13.238;2022-08-18T13:05:46;10.57;;;9.60;;
6928;SDS011;3504;52.616;13.238;2022-08-18T13:10:48;10.85;;;9.85;;
6928;SDS011;3504;52.616;13.238;2022-08-18T13:15:49;11.07;;;9.77;;
6928;SDS011;3504;52.616;13.238;2022-08-18T13:20:49;9.90;;;8.90;;
6928;SDS011;3504;52.616;13.238;2022-08-18T13:25:50;10.10;;;9.00;;
6928;SDS011;3504;52.616;13.238;2022-08-18T13:30:52;10.57;;;9.00;;
6928;SDS011;3504;52.616;13.238;2022-08-18T13:35:53;10.65;;;9.18;;
6928;SDS011;3504;52.616;13.238;2022-08-18T13:40:56;11.27;;;10.32;;
6928;SDS011;3504;52.616;13.238;2022-08-18T13:45:59;11.23;;;10.18;;
6928;SDS011;3504;52.616;13.238;2022-08-18T13:51:06;11.63;;;10.43;;
6928;SDS011;3504;52.616;13.238;2022-08-18T13:56:09;13.02;;;11.88;;
6928;SDS011;3504;52.616;13.238;2022-08-18T14:01:11;12.65;;;11.55;;
6928;SDS011;3504;52.616;13.238;2022-08-18T14:06:12;12.95;;;11.60;;
6928;SDS011;3504;52.616;13.238;2022-08-18T14:11:13;14.35;;;13.00;;
6928;SDS011;3504;52.616;13.238;2022-08-18T14:16:14;14.70;;;13.25;;
6928;SDS011;3504;52.616;13.238;2022-08-18T14:21:16;14.70;;;13.20;;
6928;SDS011;3504;52.616;13.238;2022-08-18T14:26:35;14.82;;;13.52;;
6928;SDS011;3504;52.616;13.238;2022-08-18T14:31:49;13.50;;;12.25;;
6928;SDS011;3504;52.616;13.238;2022-08-18T14:36:50;14.05;;;12.73;;
6928;SDS011;3504;52.616;13.238;2022-08-18T14:41:51;14.82;;;12.15;;
6928;SDS011;3504;52.616;13.238;2022-08-18T14:46:52;12.50;;;11.35;;
6928;SDS011;3504;52.616;13.238;2022-08-18T14:51:58;12.52;;;10.98;;
6928;SDS011;3504;52.616;13.238;2022-08-18T14:57:00;11.07;;;9.98;;
6928;SDS011;3504;52.616;13.238;2022-08-18T15:02:04;10.98;;;10.00;;
6928;SDS011;3504;52.616;13.238;2022-08-18T15:07:09;11.40;;;10.15;;
6928;SDS011;3504;52.616;13.238;2022-08-18T15:12:11;11.35;;;9.50;;
6928;SDS011;3504;52.616;13.238;2022-08-18T15:17:14;10.65;;;9.55;;
6928;SDS011;3504;52.616;13.238;2022-08-18T15:22:14;9.48;;;7.85;;
6928;SDS011;3504;52.616;13.238;2022-08-18T15:27:35;8.20;;;7.25;;
6928;SDS011;3504;52.616;13.238;2022-08-18T15:32:40;7.78;;;7.07;;
6928;SDS011;3504;52.616;13.238;2022-08-18T15:37:45;9.18;;;7.18;;
6928;SDS011;3504;52.616;13.238;2022-08-18T15:42:50;7.45;;;6.75;;
6928;SDS011;3504;52.616;13.238;2022-08-18T15:47:55;8.15;;;7.25;;
6928;SDS011;3504;52.616;13.238;2022-08-18T15:52:58;6.90;;;6.30;;
6928;SDS011;3504;52.616;13.238;2022-08-18T15:58:05;8.38;;;7.57;;
6928;SDS011;3504;52.616;13.238;2022-08-18T16:03:09;7.45;;;6.75;;
6928;SDS011;3504;52.616;13.238;2022-08-18T16:08:13;7.38;;;6.60;;
6928;SDS011;3504;52.616;13.238;2022-08-18T16:13:17;8.18;;;7.35;;
6928;SDS011;3504;52.616;13.238;2022-08-18T16:18:18;7.60;;;6.80;;
6928;SDS011;3504;52.616;13.238;2022-08-18T16:23:23;8.30;;;7.43;;
6928;SDS011;3504;52.616;13.238;2022-08-18T16:28:24;7.63;;;6.90;;
6928;SDS011;3504;52.616;13.238;2022-08-18T16:33:26;13.85;;;7.93;;
6928;SDS011;3504;52.616;13.238;2022-08-18T16:38:27;7.40;;;6.78;;
6928;SDS011;3504;52.616;13.238;2022-08-18T16:43:29;8.80;;;7.90;;
6928;SDS011;3504;52.616;13.238;2022-08-18T16:48:30;8.85;;;8.00;;
6928;SDS011;3504;52.616;13.238;2022-08-18T16:53:33;9.23;;;8.43;;
6928;SDS011;3504;52.616;13.238;2022-08-18T16:58:33;10.82;;;8.45;;
6928;SDS011;3504;52.616;13.238;2022-08-18T17:03:54;10.60;;;9.10;;
6928;SDS011;3504;52.616;13.238;2022-08-18T17:09:07;9.32;;;8.20;;
6928;SDS011;3504;52.616;13.238;2022-08-18T17:14:09;9.20;;;8.30;;
6928;SDS011;3504;52.616;13.238;2022-08-18T17:19:10;11.07;;;8.60;;
6928;SDS011;3504;52.616;13.238;2022-08-18T17:24:12;10.18;;;9.27;;
6928;SDS011;3504;52.616;13.238;2022-08-18T17:29:16;10.10;;;8.93;;
6928;SDS011;3504;52.616;13.238;2022-08-18T17:34:20;10.60;;;9.55;;
6928;SDS011;3504;52.616;13.238;2022-08-18T17:39:32;9.13;;;8.32;;
6928;SDS011;3504;52.616;13.238;2022-08-18T17:44:41;8.70;;;8.00;;
6928;SDS011;3504;52.616;13.238;2022-08-18T17:49:43;9.18;;;8.38;;
6928;SDS011;3504;52.616;13.238;2022-08-18T17:55:09;9.27;;;8.32;;
6928;SDS011;3504;52.616;13.238;2022-08-18T18:00:26;9.30;;;8.50;;
6928;SDS011;3504;52.616;13.238;2022-08-18T18:05:40;8.75;;;8.05;;
6928;SDS011;3504;52.616;13.238;2022-08-18T18:10:48;8.07;;;7.47;;
6928;SDS011;3504;52.616;13.238;2022-08-18T18:15:57;9.07;;;8.20;;
6928;SDS011;3504;52.616;13.238;2022-08-18T18:21:19;8.93;;;8.13;;
6928;SDS011;3504;52.616;13.238;2022-08-18T18:26:32;9.18;;;8.35;;
6928;SDS011;3504;52.616;13.238;2022-08-18T18:31:35;9.60;;;8.68;;
6928;SDS011;3504;52.616;13.238;2022-08-18T18:36:42;9.30;;;8.40;;
6928;SDS011;3504;52.616;13.238;2022-08-18T18:41:46;9.75;;;8.90;;
6928;SDS011;3504;52.616;13.238;2022-08-18T18:47:05;9.75;;;8.80;;
6928;SDS011;3504;52.616;13.238;2022-08-18T19:09:07;10.15;;;9.15;;
6928;SDS011;3504;52.616;13.238;2022-08-18T19:14:19;11.35;;;10.18;;
6928;SDS011;3504;52.616;13.238;2022-08-18T19:19:41;10.35;;;9.40;;
6928;SDS011;3504;52.616;13.238;2022-08-18T19:25:02;10.55;;;9.55;;
6928;SDS011;3504;52.616;13.238;2022-08-18T19:30:20;10.77;;;9.43;;
6928;SDS011;3504;52.616;13.238;2022-08-18T19:46:44;9.52;;;8.63;;
6928;SDS011;3504;52.616;13.238;2022-08-18T19:51:51;9.95;;;9.13;;
6928;SDS011;3504;52.616;13.238;2022-08-18T20:13:31;9.10;;;8.23;;
6928;SDS011;3504;52.616;13.238;2022-08-18T20:24:00;9.23;;;8.43;;
6928;SDS011;3504;52.616;13.238;2022-08-18T20:29:11;9.35;;;8.52;;
6928;SDS011;3504;52.616;13.238;2022-08-18T20:34:19;9.82;;;8.55;;
6928;SDS011;3504;52.616;13.238;2022-08-18T20:44:55;9.55;;;8.68;;
6928;SDS011;3504;52.616;13.238;2022-08-18T20:50:47;9.50;;;8.60;;
6928;SDS011;3504;52.616;13.238;2022-08-18T21:01:26;8.77;;;7.97;;
6928;SDS011;3504;52.616;13.238;2022-08-18T21:06:31;9.57;;;8.70;;
6928;SDS011;3504;52.616;13.238;2022-08-18T21:11:40;9.73;;;8.93;;
6928;SDS011;3504;52.616;13.238;2022-08-18T21:16:44;9.65;;;8.73;;
6928;SDS011;3504;52.616;13.238;2022-08-18T21:21:49;9.40;;;8.52;;
6928;SDS011;3504;52.616;13.238;2022-08-18T21:27:02;10.27;;;9.38;;
6928;SDS011;3504;52.616;13.238;2022-08-18T21:32:30;10.43;;;9.43;;
6928;SDS011;3504;52.616;13.238;2022-08-18T21:37:33;10.13;;;9.23;;
6928;SDS011;3504;52.616;13.238;2022-08-18T21:42:43;10.77;;;9.68;;
6928;SDS011;3504;52.616;13.238;2022-08-18T21:47:46;10.15;;;9.25;;
6928;SDS011;3504;52.616;13.238;2022-08-18T21:52:59;11.25;;;10.02;;
6928;SDS011;3504;52.616;13.238;2022-08-18T22:03:24;10.63;;;9.45;;
6928;SDS011;3504;52.616;13.238;2022-08-18T22:08:30;10.75;;;9.75;;
6928;SDS011;3504;52.616;13.238;2022-08-18T22:13:48;10.95;;;9.85;;
6928;SDS011;3504;52.616;13.238;2022-08-18T22:24:35;11.75;;;10.20;;
6928;SDS011;3504;52.616;13.238;2022-08-18T22:29:51;11.43;;;10.23;;
6928;SDS011;3504;52.616;13.238;2022-08-18T22:35:02;14.77;;;11.40;;
6928;SDS011;3504;52.616;13.238;2022-08-18T22:40:07;13.90;;;11.77;;
6928;SDS011;3504;52.616;13.238;2022-08-18T22:45:12;13.60;;;11.88;;
6928;SDS011;3504;52.616;13.238;2022-08-18T22:50:13;12.73;;;11.52;;
6928;SDS011;3504;52.616;13.238;2022-08-18T22:55:16;12.93;;;11.57;;
6928;SDS011;3504;52.616;13.238;2022-08-18T23:00:17;13.40;;;12.20;;
6928;SDS011;3504;52.616;13.238;2022-08-18T23:05:22;14.27;;;12.90;;
6928;SDS011;3504;52.616;13.238;2022-08-18T23:10:22;13.82;;;12.52;;
6928;SDS011;3504;52.616;13.238;2022-08-18T23:15:24;15.00;;;13.57;;
6928;SDS011;3504;52.616;13.238;2022-08-18T23:20:44;15.40;;;13.90;;
6928;SDS011;3504;52.616;13.238;2022-08-18T23:25:48;16.50;;;14.70;;
6928;SDS011;3504;52.616;13.238;2022-08-18T23:30:50;16.80;;;15.10;;
6928;SDS011;3504;52.616;13.238;2022-08-18T23:35:52;16.75;;;15.23;;
6928;SDS011;3504;52.616;13.238;2022-08-18T23:40:53;15.63;;;14.13;;
6928;SDS011;3504;52.616;13.238;2022-08-18T23:45:57;16.63;;;15.13;;
6928;SDS011;3504;52.616;13.238;2022-08-18T23:50:57;16.58;;;14.93;;
6928;SDS011;3504;52.616;13.238;2022-08-18T23:56:02;17.60;;;15.95;;
